createdAt,value
2023-03-28T00:01:17.903Z,96194.50
2023-03-28T00:03:45.965Z,96204.84
2023-03-28T00:06:16.305Z,96204.84
2023-03-28T00:08:45.874Z,96205.56
2023-03-28T00:11:18.925Z,96200.06
2023-03-28T00:13:47.784Z,96212.75
2023-03-28T00:16:17.272Z,96216.25
2023-03-28T00:18:44.910Z,96217.28
2023-03-28T00:21:24.711Z,96224.66
2023-03-28T00:23:53.852Z,96214.16
2023-03-28T00:26:24.543Z,96217.75
2023-03-28T00:28:52.822Z,96227.16
2023-03-28T00:31:22.862Z,96220.72
2023-03-28T00:33:50.526Z,96221.56
2023-03-28T00:36:23.166Z,96230.13
2023-03-28T00:38:52.118Z,96221.81
2023-03-28T00:41:21.802Z,96219.56
2023-03-28T00:43:51.565Z,96218.53
2023-03-28T00:46:26.323Z,96223.22
2023-03-28T00:49:00.436Z,96218.34
2023-03-28T00:51:32.792Z,96223.09
2023-03-28T00:54:02.354Z,96222.91
2023-03-28T00:56:33.492Z,96233.91
2023-03-28T00:59:06.574Z,96231.09
2023-03-28T01:01:36.881Z,96228.19
2023-03-28T01:04:10.015Z,96236.31
2023-03-28T01:06:42.861Z,96241.78
2023-03-28T01:09:14.855Z,96240.53
2023-03-28T01:11:49.049Z,96240.09
2023-03-28T01:14:22.535Z,96242.19
2023-03-28T01:16:56.506Z,96244.28
2023-03-28T01:19:42.688Z,96248.84
2023-03-28T01:22:56.654Z,96249.03
2023-03-28T01:25:48.543Z,96254.44
2023-03-28T01:28:29.995Z,96257.88
2023-03-28T01:31:14.509Z,96258.38
2023-03-28T01:34:42.871Z,96258.78
2023-03-28T01:37:31.625Z,96267.44
2023-03-28T01:40:12.109Z,96254.50
2023-03-28T01:42:54.257Z,96261.84
2023-03-28T01:45:29.583Z,96262.44
2023-03-28T01:48:06.325Z,96265.78
2023-03-28T01:50:41.735Z,96268.19
2023-03-28T01:53:17.299Z,96266.81
2023-03-28T01:55:53.993Z,96267.25
2023-03-28T01:58:29.880Z,96271.59
2023-03-28T02:01:08.008Z,96272.44
2023-03-28T02:03:39.904Z,96269.31
2023-03-28T02:06:22.787Z,96273.50
2023-03-28T02:08:55.011Z,96277.09
2023-03-28T02:11:30.206Z,96273.03
2023-03-28T02:14:16.903Z,96279.41
2023-03-28T02:17:21.976Z,96271.09
2023-03-28T02:20:14.721Z,96277.72
2023-03-28T02:23:17.623Z,96277.38
2023-03-28T02:26:12.587Z,96276.94
2023-03-28T02:28:59.292Z,96279.25
2023-03-28T02:31:46.244Z,96274.06
2023-03-28T02:34:14.066Z,96280.78
2023-03-28T02:36:51.455Z,96280.78
2023-03-28T02:39:39.008Z,96280.06
2023-03-28T02:42:29.515Z,96278.59
2023-03-28T02:45:15.213Z,96281.28
2023-03-28T02:47:58.028Z,96288.97
2023-03-28T02:50:37.192Z,96296.00
2023-03-28T02:53:12.353Z,96290.66
2023-03-28T02:55:49.133Z,96287.50
2023-03-28T02:58:42.044Z,96292.44
2023-03-28T03:01:14.513Z,96290.88
2023-03-28T03:03:43.890Z,96296.59
2023-03-28T03:06:12.500Z,96293.66
2023-03-28T03:08:40.615Z,96300.94
2023-03-28T03:11:08.347Z,96305.09
2023-03-28T03:13:37.720Z,96305.50
2023-03-28T03:16:06.277Z,96306.25
2023-03-28T03:18:34.965Z,96302.66
2023-03-28T03:21:03.063Z,96298.91
2023-03-28T03:23:31.105Z,96308.22
2023-03-28T03:26:00.651Z,96302.13
2023-03-28T03:28:41.218Z,96313.16
2023-03-28T03:31:09.594Z,96309.91
2023-03-28T03:33:56.322Z,96314.00
2023-03-28T03:36:30.388Z,96301.78
2023-03-28T03:39:00.227Z,96307.50
2023-03-28T03:41:28.145Z,96305.88
2023-03-28T03:43:57.225Z,96306.34
2023-03-28T03:46:24.918Z,96309.78
2023-03-28T03:48:53.854Z,96303.88
2023-03-28T03:51:21.513Z,96302.94
2023-03-28T03:53:53.422Z,96308.91
2023-03-28T03:56:26.208Z,96312.88
2023-03-28T03:58:59.791Z,96310.34
2023-03-28T04:01:30.906Z,96307.16
2023-03-28T04:04:19.233Z,96311.69
2023-03-28T04:07:05.748Z,96321.50
2023-03-28T04:09:35.608Z,96325.22
2023-03-28T04:12:05.180Z,96324.63
2023-03-28T04:14:43.455Z,96328.13
2023-03-28T04:17:37.804Z,96321.44
2023-03-28T04:20:13.876Z,96323.91
2023-03-28T04:23:01.123Z,96331.84
2023-03-28T04:25:31.598Z,96327.22
2023-03-28T04:28:05.651Z,96330.28
2023-03-28T04:30:58.131Z,96337.13
2023-03-28T04:33:30.369Z,96338.91
2023-03-28T04:36:02.297Z,96338.44
2023-03-28T04:38:32.437Z,96347.94
2023-03-28T04:41:16.818Z,96356.44
2023-03-28T04:44:10.461Z,96345.25
2023-03-28T04:46:49.203Z,96346.84
2023-03-28T04:49:17.847Z,96348.97
2023-03-28T04:51:46.247Z,96358.75
2023-03-28T04:54:13.930Z,96362.91
2023-03-28T04:56:49.439Z,96363.09
2023-03-28T04:59:24.237Z,96362.44
2023-03-28T05:01:54.218Z,96372.63
2023-03-28T05:04:37.430Z,96369.00
2023-03-28T05:07:07.487Z,96377.44
2023-03-28T05:09:35.971Z,96376.41
2023-03-28T05:12:03.905Z,96386.66
2023-03-28T05:14:34.694Z,96383.22
2023-03-28T05:17:13.525Z,96388.78
2023-03-28T05:19:57.864Z,96391.66
2023-03-28T05:22:28.145Z,96395.09
2023-03-28T05:24:59.616Z,96399.72
2023-03-28T05:27:27.430Z,96403.06
2023-03-28T05:29:55.876Z,96402.94
2023-03-28T05:32:26.360Z,96408.41
2023-03-28T05:34:55.821Z,96409.72
2023-03-28T05:37:28.528Z,96413.75
2023-03-28T05:39:56.330Z,96410.59
2023-03-28T05:42:24.118Z,96415.28
2023-03-28T05:44:52.018Z,96409.69
2023-03-28T05:47:56.961Z,96417.69
2023-03-28T05:50:26.302Z,96411.28
2023-03-28T05:52:59.786Z,96414.19
2023-03-28T05:55:27.636Z,96412.28
2023-03-28T05:57:55.946Z,96420.47
2023-03-28T06:00:27.004Z,96424.72
2023-03-28T06:02:56.472Z,96422.75
2023-03-28T06:05:32.618Z,96423.91
2023-03-28T06:08:01.733Z,96424.25
2023-03-28T06:10:30.840Z,96430.72
2023-03-28T06:13:13.468Z,96426.84
2023-03-28T06:15:42.667Z,96440.94
2023-03-28T06:18:12.120Z,96444.25
2023-03-28T06:20:45.565Z,96434.69
2023-03-28T06:23:13.436Z,96441.59
2023-03-28T06:25:42.009Z,96445.84
2023-03-28T06:28:10.168Z,96453.31
2023-03-28T06:30:58.032Z,96454.56
2023-03-28T06:33:27.956Z,96455.00
2023-03-28T06:35:56.069Z,96463.56
2023-03-28T06:38:25.035Z,96455.25
2023-03-28T06:40:53.706Z,96463.97
2023-03-28T06:43:21.455Z,96465.53
2023-03-28T06:46:07.392Z,96469.78
2023-03-28T06:48:37.863Z,96466.56
2023-03-28T06:51:26.257Z,96462.97
2023-03-28T06:53:54.338Z,96476.03
2023-03-28T06:56:26.134Z,96475.91
2023-03-28T06:58:56.439Z,96469.66
2023-03-28T07:01:27.219Z,96470.78
2023-03-28T07:04:08.880Z,96473.50
2023-03-28T07:06:37.646Z,96470.31
2023-03-28T07:09:06.805Z,96477.63
2023-03-28T07:11:54.846Z,96477.63
2023-03-28T07:14:23.859Z,96480.47
2023-03-28T07:16:51.736Z,96478.56
2023-03-28T07:19:20.884Z,96488.88
2023-03-28T07:21:49.395Z,96482.88
2023-03-28T07:24:17.128Z,96488.75
2023-03-28T07:27:12.367Z,96490.41
2023-03-28T07:29:42.981Z,96488.34
2023-03-28T07:32:11.154Z,96510.22
2023-03-28T07:34:40.219Z,96501.22
2023-03-28T07:37:10.771Z,96496.31
2023-03-28T07:40:10.949Z,96507.75
2023-03-28T07:42:40.926Z,96505.53
2023-03-28T07:45:10.264Z,96514.38
2023-03-28T07:47:37.916Z,96504.19
2023-03-28T07:50:08.457Z,96522.84
2023-03-28T07:52:36.098Z,96515.16
2023-03-28T07:55:04.009Z,96525.72
2023-03-28T07:57:36.821Z,96536.44
2023-03-28T08:00:17.375Z,96528.44
2023-03-28T08:03:00.930Z,96527.56
2023-03-28T08:05:34.064Z,96528.03
2023-03-28T08:08:03.596Z,96529.31
2023-03-28T08:10:31.552Z,96522.34
2023-03-28T08:12:59.510Z,96525.66
2023-03-28T08:15:27.461Z,96530.63
2023-03-28T08:17:55.431Z,96532.28
2023-03-28T08:20:23.329Z,96525.06
2023-03-28T08:23:15.514Z,96534.91
2023-03-28T08:26:06.353Z,96537.03
2023-03-28T08:28:36.234Z,96533.25
2023-03-28T08:31:14.187Z,96539.16
2023-03-28T08:33:44.184Z,96537.72
2023-03-28T08:36:14.908Z,96532.06
2023-03-28T08:38:47.084Z,96529.69
2023-03-28T08:41:30.774Z,96516.63
2023-03-28T08:44:18.762Z,96531.00
2023-03-28T08:46:49.607Z,96538.69
2023-03-28T08:49:19.612Z,96532.53
2023-03-28T08:51:52.836Z,96534.31
2023-03-28T08:54:25.837Z,96536.09
2023-03-28T08:56:55.663Z,96535.03
2023-03-28T08:59:30.406Z,96535.25
2023-03-28T09:01:58.388Z,96539.66
2023-03-28T09:04:29.236Z,96532.41
2023-03-28T09:07:24.167Z,96537.44
2023-03-28T09:10:04.747Z,96536.25
2023-03-28T09:12:53.281Z,96534.81
2023-03-28T09:15:36.070Z,96531.44
2023-03-28T09:18:19.223Z,96531.63
2023-03-28T09:20:53.515Z,96539.22
2023-03-28T09:23:58.946Z,96537.09
2023-03-28T09:27:02.865Z,96538.34
2023-03-28T09:29:36.386Z,96548.91
2023-03-28T09:32:12.385Z,96545.16
2023-03-28T09:34:48.968Z,96542.84
2023-03-28T09:37:28.510Z,96548.84
2023-03-28T09:39:58.751Z,96549.81
2023-03-28T09:42:44.785Z,96539.34
2023-03-28T09:45:40.531Z,96557.28
2023-03-28T09:48:29.746Z,96546.72
2023-03-28T09:51:01.817Z,96548.22
2023-03-28T09:53:33.146Z,96543.75
2023-03-28T09:56:04.986Z,96544.81
2023-03-28T09:58:52.713Z,96548.22
2023-03-28T10:01:45.517Z,96529.69
2023-03-28T10:04:37.200Z,96539.13
2023-03-28T10:07:29.904Z,96548.13
2023-03-28T10:10:18.365Z,96535.94
2023-03-28T10:12:49.726Z,96538.78
2023-03-28T10:15:34.452Z,96533.88
2023-03-28T10:18:22.835Z,96545.06
2023-03-28T10:21:11.667Z,96531.53
2023-03-28T10:23:44.036Z,96543.38
2023-03-28T10:26:13.892Z,96535.66
2023-03-28T10:28:44.252Z,96535.38
2023-03-28T10:31:29.074Z,96533.50
2023-03-28T10:34:25.707Z,96538.91
2023-03-28T10:37:26.215Z,96537.84
2023-03-28T10:40:26.294Z,96534.28
2023-03-28T10:43:14.457Z,96533.91
2023-03-28T10:46:03.482Z,96531.66
2023-03-28T10:48:58.385Z,96535.84
2023-03-28T10:51:29.297Z,96528.63
2023-03-28T10:54:10.510Z,96520.00
2023-03-28T10:56:43.102Z,96518.31
2023-03-28T10:59:26.017Z,96520.38
2023-03-28T11:02:11.391Z,96517.22
2023-03-28T11:04:56.266Z,96503.25
2023-03-28T11:07:33.804Z,96514.19
2023-03-28T11:10:24.504Z,96521.16
2023-03-28T11:13:29.992Z,96513.34
2023-03-28T11:16:03.024Z,96525.41
2023-03-28T11:18:53.594Z,96505.94
2023-03-28T11:21:34.131Z,96503.91
2023-03-28T11:24:14.964Z,96481.13
2023-03-28T11:27:14.971Z,96482.13
2023-03-28T11:30:10.904Z,96470.13
2023-03-28T11:32:51.802Z,96468.56
2023-03-28T11:35:27.422Z,96475.41
2023-03-28T11:38:04.443Z,96479.72
2023-03-28T11:40:38.350Z,96470.78
2023-03-28T11:43:14.687Z,96468.50
2023-03-28T11:45:51.932Z,96471.56
2023-03-28T11:48:27.783Z,96475.78
2023-03-28T11:51:03.658Z,96470.44
2023-03-28T11:53:55.301Z,96468.19
2023-03-28T11:56:37.079Z,96455.44
2023-03-28T11:59:22.849Z,96464.19
2023-03-28T12:01:57.838Z,96460.63
2023-03-28T12:04:31.548Z,96459.44
2023-03-28T12:07:11.199Z,96461.47
2023-03-28T12:09:58.111Z,96460.00
2023-03-28T12:12:31.787Z,96467.22
2023-03-28T12:15:05.748Z,96472.78
2023-03-28T12:17:53.753Z,96449.59
2023-03-28T12:20:31.849Z,96447.41
2023-03-28T12:23:11.836Z,96449.38
2023-03-28T12:26:23.978Z,96445.53
2023-03-28T12:28:56.950Z,96442.78
2023-03-28T12:31:29.403Z,96433.31
2023-03-28T12:34:13.104Z,96422.28
2023-03-28T12:37:06.242Z,96432.00
2023-03-28T12:39:43.744Z,96422.06
2023-03-28T12:42:24.426Z,96420.03
2023-03-28T12:44:56.809Z,96413.50
2023-03-28T12:47:29.369Z,96416.31
2023-03-28T12:50:02.813Z,96416.50
2023-03-28T12:52:33.578Z,96421.34
2023-03-28T12:55:07.414Z,96416.75
2023-03-28T12:57:46.659Z,96409.25
2023-03-28T13:00:28.333Z,96409.56
2023-03-28T13:03:36.959Z,96405.44
2023-03-28T13:06:14.183Z,96407.16
2023-03-28T13:09:00.119Z,96404.34
2023-03-28T13:11:38.502Z,96399.66
2023-03-28T13:14:27.372Z,96405.63
2023-03-28T13:16:58.545Z,96390.97
2023-03-28T13:19:39.609Z,96391.13
2023-03-28T13:22:29.677Z,96384.44
2023-03-28T13:25:23.005Z,96389.31
2023-03-28T13:27:52.934Z,96393.56
2023-03-28T13:30:26.165Z,96395.66
2023-03-28T13:32:55.708Z,96393.13
2023-03-28T13:35:39.213Z,96386.97
2023-03-28T13:38:25.198Z,96374.19
2023-03-28T13:40:55.868Z,96359.41
2023-03-28T13:43:26.068Z,96362.41
2023-03-28T13:45:59.031Z,96361.38
2023-03-28T13:48:33.132Z,96370.31
2023-03-28T13:51:06.776Z,96360.47
2023-03-28T13:53:46.807Z,96363.66
2023-03-28T13:56:23.895Z,96356.13
2023-03-28T13:58:53.583Z,96359.63
2023-03-28T14:01:25.814Z,96360.41
2023-03-28T14:03:54.990Z,96347.13
2023-03-28T14:06:24.564Z,96345.31
2023-03-28T14:08:54.261Z,96345.78
2023-03-28T14:11:24.994Z,96345.84
2023-03-28T14:14:00.581Z,96341.78
2023-03-28T14:16:29.739Z,96334.22
2023-03-28T14:18:57.905Z,96343.94
2023-03-28T14:21:26.510Z,96337.88
2023-03-28T14:23:59.559Z,96331.50
2023-03-28T14:26:30.884Z,96329.91
2023-03-28T14:29:03.900Z,96330.47
2023-03-28T14:31:35.248Z,96325.22
2023-03-28T14:34:16.144Z,96320.56
2023-03-28T14:36:59.394Z,96322.78
2023-03-28T14:39:28.136Z,96309.25
2023-03-28T14:41:57.435Z,96316.97
2023-03-28T14:44:25.702Z,96311.94
2023-03-28T14:46:58.376Z,96300.56
2023-03-28T14:49:27.214Z,96308.25
2023-03-28T14:51:57.542Z,96308.97
2023-03-28T14:54:29.531Z,96305.06
2023-03-28T14:56:58.993Z,96308.22
2023-03-28T14:59:34.619Z,96296.78
2023-03-28T15:02:06.312Z,96288.84
2023-03-28T15:04:35.851Z,96302.13
2023-03-28T15:07:04.742Z,96295.84
2023-03-28T15:09:34.432Z,96293.69
2023-03-28T15:12:06.647Z,96291.97
2023-03-28T15:14:41.114Z,96289.53
2023-03-28T15:17:18.988Z,96285.03
2023-03-28T15:19:48.542Z,96272.03
2023-03-28T15:22:23.736Z,96283.00
2023-03-28T15:24:51.804Z,96267.75
2023-03-28T15:27:27.072Z,96270.41
2023-03-28T15:29:55.809Z,96274.72
2023-03-28T15:32:27.913Z,96272.84
2023-03-28T15:35:00.700Z,96269.41
2023-03-28T15:37:28.904Z,96261.34
2023-03-28T15:40:22.840Z,96269.31
2023-03-28T15:42:51.861Z,96262.59
2023-03-28T15:45:40.959Z,96262.38
2023-03-28T15:48:17.564Z,96264.78
2023-03-28T15:50:51.027Z,96256.63
2023-03-28T15:53:19.259Z,96246.50
2023-03-28T15:55:49.099Z,96240.81
2023-03-28T15:58:19.894Z,96241.50
2023-03-28T16:00:50.240Z,96252.78
2023-03-28T16:03:34.632Z,96260.81
2023-03-28T16:06:31.658Z,96259.09
2023-03-28T16:09:15.757Z,96249.16
2023-03-28T16:11:44.939Z,96255.75
2023-03-28T16:14:31.158Z,96251.72
2023-03-28T16:17:17.647Z,96243.13
2023-03-28T16:20:01.115Z,96251.16
2023-03-28T16:22:30.222Z,96236.09
2023-03-28T16:24:57.826Z,96248.16
2023-03-28T16:27:25.992Z,96240.59
2023-03-28T16:29:53.610Z,96239.56
2023-03-28T16:32:23.755Z,96234.63
2023-03-28T16:34:51.669Z,96238.72
2023-03-28T16:37:21.787Z,96241.75
2023-03-28T16:39:49.538Z,96230.72
2023-03-28T16:42:18.202Z,96231.09
2023-03-28T16:44:45.809Z,96231.31
2023-03-28T16:47:13.677Z,96221.69
2023-03-28T16:49:41.841Z,96222.88
2023-03-28T16:52:09.601Z,96217.13
2023-03-28T16:54:38.678Z,96220.28
2023-03-28T16:57:06.497Z,96219.44
2023-03-28T16:59:34.092Z,96212.69
2023-03-28T17:02:02.115Z,96213.28
2023-03-28T17:04:30.093Z,96208.81
2023-03-28T17:06:58.083Z,96210.84
2023-03-28T17:09:26.419Z,96206.50
2023-03-28T17:11:55.468Z,96200.50
2023-03-28T17:14:23.476Z,96190.69
2023-03-28T17:16:51.707Z,96190.38
2023-03-28T17:19:24.050Z,96193.50
2023-03-28T17:21:51.779Z,96188.44
2023-03-28T17:24:21.497Z,96194.50
2023-03-28T17:26:49.143Z,96192.53
2023-03-28T17:29:18.539Z,96194.00
2023-03-28T17:31:46.498Z,96198.22
2023-03-28T17:34:14.292Z,96193.38
2023-03-28T17:36:42.109Z,96188.00
2023-03-28T17:39:12.013Z,96182.84
2023-03-28T17:41:39.716Z,96180.81
2023-03-28T17:44:08.975Z,96177.75
2023-03-28T17:46:38.660Z,96174.84
2023-03-28T17:49:08.166Z,96175.69
2023-03-28T17:51:35.865Z,96173.84
2023-03-28T17:54:04.400Z,96180.09
2023-03-28T17:56:32.185Z,96179.75
2023-03-28T17:59:00.338Z,96181.69
2023-03-28T18:01:28.019Z,96181.81
2023-03-28T18:03:57.084Z,96180.63
2023-03-28T18:07:03.236Z,96181.56
2023-03-28T18:09:44.425Z,96182.78
2023-03-28T18:12:12.695Z,96179.06
2023-03-28T18:14:40.546Z,96179.66
2023-03-28T18:17:08.456Z,96183.53
2023-03-28T18:19:37.606Z,96175.44
2023-03-28T18:22:05.623Z,96175.25
2023-03-28T18:24:34.174Z,96167.00
2023-03-28T18:27:01.989Z,96166.13
2023-03-28T18:29:31.004Z,96160.00
2023-03-28T18:31:58.780Z,96166.47
2023-03-28T18:34:26.994Z,96161.59
2023-03-28T18:36:56.284Z,96156.44
2023-03-28T18:39:24.317Z,96152.09
2023-03-28T18:41:52.096Z,96154.66
2023-03-28T18:44:19.955Z,96154.28
2023-03-28T18:46:54.602Z,96147.00
2023-03-28T18:49:22.813Z,96143.47
2023-03-28T18:51:50.504Z,96133.34
2023-03-28T18:54:20.094Z,96133.72
2023-03-28T18:56:48.276Z,96136.09
2023-03-28T18:59:16.166Z,96134.63
2023-03-28T19:01:50.847Z,96126.66
2023-03-28T19:04:18.616Z,96138.03
2023-03-28T19:06:46.459Z,96133.09
2023-03-28T19:09:14.302Z,96127.38
2023-03-28T19:11:43.362Z,96137.91
2023-03-28T19:14:11.309Z,96148.13
2023-03-28T19:16:39.018Z,96144.84
2023-03-28T19:19:06.733Z,96140.72
2023-03-28T19:21:34.796Z,96153.41
2023-03-28T19:24:02.461Z,96148.22
2023-03-28T19:26:30.246Z,96146.31
2023-03-28T19:28:59.603Z,96136.41
2023-03-28T19:31:27.418Z,96132.00
2023-03-28T19:33:55.360Z,96128.44
2023-03-28T19:36:23.097Z,96122.81
2023-03-28T19:38:50.906Z,96120.19
2023-03-28T19:41:20.488Z,96112.63
2023-03-28T19:43:49.028Z,96111.66
2023-03-28T19:46:23.070Z,96112.47
2023-03-28T19:48:53.779Z,96103.09
2023-03-28T19:51:21.509Z,96101.81
2023-03-28T19:53:49.185Z,96095.91
2023-03-28T19:56:18.968Z,96094.66
2023-03-28T19:58:46.869Z,96097.25
2023-03-28T20:01:14.864Z,96092.03
2023-03-28T20:03:43.875Z,96093.00
2023-03-28T20:06:14.160Z,96093.69
2023-03-28T20:08:42.666Z,96095.06
2023-03-28T20:11:12.077Z,96101.28
2023-03-28T20:13:40.649Z,96101.94
2023-03-28T20:16:11.008Z,96100.41
2023-03-28T20:18:39.328Z,96097.81
2023-03-28T20:21:10.918Z,96092.72
2023-03-28T20:23:38.793Z,96092.34
2023-03-28T20:26:15.480Z,96096.78
2023-03-28T20:28:46.798Z,96106.97
2023-03-28T20:31:14.459Z,96103.94
2023-03-28T20:33:42.130Z,96105.31
2023-03-28T20:36:11.300Z,96100.09
2023-03-28T20:38:38.931Z,96098.44
2023-03-28T20:41:10.650Z,96107.78
2023-03-28T20:43:40.549Z,96112.19
2023-03-28T20:46:09.845Z,96101.75
2023-03-28T20:48:37.538Z,96106.41
2023-03-28T20:51:13.901Z,96103.13
2023-03-28T20:53:44.306Z,96100.94
2023-03-28T20:56:13.468Z,96109.16
2023-03-28T20:58:42.537Z,96100.09
2023-03-28T21:01:12.117Z,96088.94
2023-03-28T21:03:48.988Z,96077.50
2023-03-28T21:06:18.092Z,96084.66
2023-03-28T21:08:48.555Z,96074.94
2023-03-28T21:11:17.212Z,96077.66
2023-03-28T21:13:44.949Z,96066.94
2023-03-28T21:16:14.517Z,96063.34
2023-03-28T21:18:42.443Z,96059.91
2023-03-28T21:21:11.306Z,96064.03
2023-03-28T21:23:39.872Z,96063.75
2023-03-28T21:26:11.066Z,96051.38
2023-03-28T21:28:39.172Z,96044.47
2023-03-28T21:31:09.067Z,96038.97
2023-03-28T21:33:38.293Z,96046.16
2023-03-28T21:36:07.614Z,96038.84
2023-03-28T21:38:36.012Z,96046.16
2023-03-28T21:41:04.260Z,96037.75
2023-03-28T21:43:33.508Z,96034.59
2023-03-28T21:46:01.472Z,96031.28
2023-03-28T21:48:29.503Z,96030.19
2023-03-28T21:50:59.785Z,96041.03
2023-03-28T21:53:29.748Z,96032.97
2023-03-28T21:55:59.213Z,96023.56
2023-03-28T21:58:29.763Z,96026.31
2023-03-28T22:00:59.029Z,96007.63
2023-03-28T22:03:27.518Z,96014.50
2023-03-28T22:05:56.025Z,96017.25
2023-03-28T22:08:24.181Z,96007.75
2023-03-28T22:10:54.105Z,96006.50
2023-03-28T22:13:24.002Z,96013.38
2023-03-28T22:15:53.055Z,96023.56
2023-03-28T22:18:25.620Z,96025.50
2023-03-28T22:20:53.929Z,96028.56
2023-03-28T22:23:22.773Z,96012.84
2023-03-28T22:25:51.014Z,96021.91
2023-03-28T22:28:18.926Z,96010.09
2023-03-28T22:30:46.605Z,96030.03
2023-03-28T22:33:14.512Z,96017.38
2023-03-28T22:35:43.499Z,96024.94
2023-03-28T22:38:11.359Z,96039.28
2023-03-28T22:40:38.978Z,96043.97
2023-03-28T22:43:07.154Z,96048.75
2023-03-28T22:45:34.749Z,96040.81
2023-03-28T22:48:03.354Z,96033.78
2023-03-28T22:50:33.369Z,96022.75
2023-03-28T22:53:02.494Z,95996.03
2023-03-28T22:55:30.369Z,95978.72
2023-03-28T22:57:57.958Z,95982.13
2023-03-28T23:00:25.951Z,95992.03
2023-03-28T23:02:53.660Z,95995.97
2023-03-28T23:05:21.667Z,96000.13
2023-03-28T23:07:50.548Z,95990.72
2023-03-28T23:10:20.117Z,96007.72
2023-03-28T23:12:48.615Z,96000.69
2023-03-28T23:15:16.601Z,96030.28
2023-03-28T23:17:44.478Z,96017.03
2023-03-28T23:20:14.822Z,96043.63
2023-03-28T23:22:44.175Z,96042.13
2023-03-28T23:25:13.240Z,96049.16
2023-03-28T23:27:42.521Z,96050.50
2023-03-28T23:30:12.244Z,96030.09
2023-03-28T23:32:39.970Z,96012.06
2023-03-28T23:35:09.746Z,96017.41
2023-03-28T23:37:38.420Z,96043.84
2023-03-28T23:40:14.844Z,96070.31
2023-03-28T23:42:45.197Z,96070.28
2023-03-28T23:45:15.228Z,96084.50
2023-03-28T23:47:43.681Z,96089.50
2023-03-28T23:50:12.311Z,96089.34
2023-03-28T23:52:40.280Z,96094.53
2023-03-28T23:55:09.261Z,96091.22
2023-03-28T23:57:37.114Z,96087.41
